Time;durP1;ratioP1;P1;durP2;ratioP2;P2;SDS_P1;SDS_P2;PMS_P1;PMS_P2;Temp;Humidity;BMP_temperature;BMP_pressure;BME280_temperature;BME280_humidity;BME280_pressure;Samples;Min_cycle;Max_cycle;Signal;HPM_P1;HPM_P2
2022/11/07 00:07:38;;;;;;;22.90;11.90;;;;;;;6.75;100.00;100468.86;636172;1297;140833;-81
2022/11/07 00:22:41;;;;;;;32.60;14.50;;;;;;;6.79;100.00;100478.52;635690;1296;1091130;-81
2022/11/07 00:37:44;;;;;;;30.00;17.20;;;;;;;6.74;100.00;100485.81;637321;1297;140342;-80
2022/11/07 00:52:47;;;;;;;31.20;15.70;;;;;;;6.79;100.00;100493.58;636039;1297;140625;-81
2022/11/07 01:07:51;;;;;;;33.30;17.10;;;;;;;6.79;100.00;100471.53;636345;1297;140371;-81
2022/11/07 01:22:55;;;;;;;33.50;15.60;;;;;;;6.84;100.00;100446.68;636083;1297;140627;-81
2022/11/07 01:37:58;;;;;;;34.90;15.40;;;;;;;6.82;100.00;100395.55;635908;1295;140575;-81
2022/11/07 01:53:02;;;;;;;41.90;17.60;;;;;;;6.80;100.00;100361.27;636568;1304;140422;-80
2022/11/07 02:08:07;;;;;;;39.30;16.50;;;;;;;6.89;100.00;100327.05;637156;1297;140714;-81
2022/11/07 02:23:20;;;;;;;40.20;16.70;;;;;;;6.62;100.00;100294.55;636478;1297;139174;-81
2022/11/07 02:38:28;;;;;;;32.30;15.70;;;;;;;6.46;100.00;100272.09;634667;1304;139995;-79
2022/11/07 02:53:31;;;;;;;45.10;18.20;;;;;;;6.43;100.00;100257.02;635312;1304;140267;-81
2022/11/07 03:08:35;;;;;;;32.70;16.30;;;;;;;6.30;100.00;100242.63;635136;1304;140099;-80
2022/11/07 03:23:38;;;;;;;35.50;18.30;;;;;;;5.93;100.00;100228.82;635115;1303;140606;-82
2022/11/07 03:38:42;;;;;;;50.50;17.10;;;;;;;5.78;100.00;100222.76;633414;1307;139866;-83
2022/11/07 03:53:45;;;;;;;33.40;17.20;;;;;;;5.77;100.00;100229.77;634325;1304;139294;-81
2022/11/07 04:08:48;;;;;;;35.10;15.70;;;;;;;5.57;100.00;100247.07;636999;1299;140986;-80
2022/11/07 04:23:51;;;;;;;32.20;17.60;;;;;;;5.53;100.00;100227.59;635052;1304;140767;-80
2022/11/07 04:38:55;;;;;;;31.00;16.50;;;;;;;5.71;100.00;100204.83;635619;1304;140693;-81
2022/11/07 04:53:58;;;;;;;32.20;16.30;;;;;;;5.93;100.00;100209.92;636398;1296;139626;-81
2022/11/07 05:09:02;;;;;;;40.70;20.90;;;;;;;6.03;100.00;100183.02;635313;1301;140336;-80
2022/11/07 05:24:05;;;;;;;34.00;18.10;;;;;;;6.54;100.00;100177.49;635401;1297;140233;-81
2022/11/07 05:39:09;;;;;;;49.20;21.90;;;;;;;7.24;100.00;100182.07;636005;1297;140437;-82
2022/11/07 05:54:12;;;;;;;55.70;24.50;;;;;;;7.60;100.00;100191.05;635994;1297;141041;-82
2022/11/07 06:09:15;;;;;;;52.90;25.80;;;;;;;7.79;100.00;100183.95;636043;1297;143027;-81
2022/11/07 06:24:19;;;;;;;54.60;25.00;;;;;;;7.77;100.00;100174.06;634330;1303;140228;-82
2022/11/07 06:39:22;;;;;;;69.30;27.70;;;;;;;7.74;100.00;100182.11;633904;1304;143268;-81
2022/11/07 06:54:25;;;;;;;76.30;29.70;;;;;;;7.79;100.00;100177.91;634129;1307;139579;-82
2022/11/07 07:09:29;;;;;;;73.30;30.90;;;;;;;7.67;100.00;100193.40;634211;1305;141284;-82
2022/11/07 07:24:33;;;;;;;79.40;32.90;;;;;;;7.86;100.00;100190.24;634291;1320;140720;-82
2022/11/07 07:39:37;;;;;;;77.10;34.60;;;;;;;8.00;100.00;100194.19;634271;1319;141005;-83
2022/11/07 07:54:40;;;;;;;75.20;33.40;;;;;;;8.25;100.00;100194.63;632449;1322;138896;-82
2022/11/07 08:09:44;;;;;;;80.70;33.50;;;;;;;8.74;100.00;100176.85;633142;1314;140389;-82
2022/11/07 08:24:47;;;;;;;69.60;31.20;;;;;;;8.96;100.00;100170.67;633848;1300;139760;-81
2022/11/07 08:39:50;;;;;;;56.10;27.30;;;;;;;8.91;100.00;100179.45;635307;1313;138817;-82
2022/11/07 08:54:54;;;;;;;56.60;25.00;;;;;;;9.11;100.00;100159.31;636370;1305;139405;-82
2022/11/07 09:09:58;;;;;;;60.60;27.00;;;;;;;9.31;100.00;100140.34;634478;1309;139535;-82
2022/11/07 09:25:02;;;;;;;73.70;30.60;;;;;;;9.49;100.00;100137.24;635437;1299;144874;-82
2022/11/07 09:40:22;;;;;;;46.00;26.20;;;;;;;9.68;100.00;100143.85;635173;1319;139441;-82
2022/11/07 09:55:34;;;;;;;60.60;28.40;;;;;;;9.84;100.00;100163.41;634453;1305;141074;-81
2022/11/07 10:10:59;;;;;;;65.70;29.70;;;;;;;10.35;100.00;100153.27;634568;1303;139279;-81
2022/11/07 10:26:12;;;;;;;42.30;22.70;;;;;;;10.54;100.00;100149.14;634757;1293;141437;-82
2022/11/07 10:41:25;;;;;;;34.90;20.20;;;;;;;10.93;100.00;100143.11;634487;1297;140351;-83
2022/11/07 10:56:30;;;;;;;36.20;20.10;;;;;;;12.04;100.00;100133.99;633629;1303;140533;-83
2022/11/07 11:11:35;;;;;;;33.20;18.30;;;;;;;12.40;98.71;100114.92;634863;1320;139889;-82
2022/11/07 11:26:42;;;;;;;35.90;18.70;;;;;;;12.84;95.51;100115.69;635300;1314;139856;-81
2022/11/07 11:41:53;;;;;;;28.60;15.00;;;;;;;12.82;90.18;100121.96;634333;1317;141836;-80
2022/11/07 11:57:05;;;;;;;27.60;15.60;;;;;;;13.42;89.79;100119.13;635385;1311;139408;-81
2022/11/07 12:12:15;;;;;;;26.60;14.80;;;;;;;14.53;86.21;100117.29;635337;1305;138851;-82
2022/11/07 12:27:31;;;;;;;31.10;16.40;;;;;;;14.53;81.98;100112.99;635039;1313;1217087;-83
2022/11/07 12:42:56;;;;;;;28.10;15.00;;;;;;;15.10;80.45;100104.42;635976;1297;140425;-83
2022/11/07 12:58:04;;;;;;;28.30;16.30;;;;;;;14.24;77.84;100137.99;635602;1305;144007;-81
2022/11/07 13:13:20;;;;;;;30.80;17.40;;;;;;;12.75;81.59;100149.56;634733;1305;140582;-82
2022/11/07 13:28:39;;;;;;;39.30;19.40;;;;;;;12.17;84.94;100153.26;638760;1306;140872;-81
2022/11/07 13:43:53;;;;;;;36.00;18.00;;;;;;;11.87;87.83;100162.41;640085;1292;140728;-81
2022/11/07 13:59:01;;;;;;;40.60;21.30;;;;;;;11.74;89.34;100165.60;639735;1298;140904;-82
2022/11/07 14:14:06;;;;;;;55.40;38.60;;;;;;;11.58;91.38;100162.85;636868;1306;140390;-82
2022/11/07 14:29:20;;;;;;;35.00;19.60;;;;;;;11.73;91.39;100164.64;637195;1310;140042;-81
2022/11/07 14:44:46;;;;;;;34.00;18.50;;;;;;;11.55;92.94;100157.86;640284;1297;139102;-82
2022/11/07 14:59:57;;;;;;;41.40;23.50;;;;;;;11.50;94.53;100158.73;639237;1297;140256;-82
2022/11/07 15:15:05;;;;;;;40.70;24.00;;;;;;;11.45;95.16;100162.45;647114;1297;141151;-82
2022/11/07 15:30:32;;;;;;;32.70;17.90;;;;;;;11.27;97.12;100176.09;641304;1313;140862;-81
2022/11/07 15:45:36;;;;;;;54.60;28.40;;;;;;;11.01;99.40;100188.02;640577;1313;141925;-82
2022/11/07 16:00:40;;;;;;;35.50;17.20;;;;;;;10.80;99.91;100195.42;639860;1315;141006;-82
2022/11/07 16:15:48;;;;;;;63.00;28.40;;;;;;;10.60;100.00;100191.92;636091;1301;140227;-82
2022/11/07 16:30:52;;;;;;;71.60;34.40;;;;;;;10.40;100.00;100187.55;635803;1314;139488;-81
2022/11/07 16:45:56;;;;;;;55.50;23.00;;;;;;;10.29;100.00;100194.99;635731;1306;141822;-82
2022/11/07 17:01:05;;;;;;;47.90;23.50;;;;;;;10.24;100.00;100204.03;636008;1300;139942;-82
2022/11/07 17:16:24;;;;;;;46.10;22.40;;;;;;;10.08;100.00;100217.77;640057;1293;140589;-82
2022/11/07 17:31:28;;;;;;;43.80;23.10;;;;;;;10.03;100.00;100224.29;637669;1301;141154;-82
2022/11/07 17:46:33;;;;;;;33.00;18.20;;;;;;;10.02;100.00;100228.31;637193;1303;141198;-82
2022/11/07 18:01:39;;;;;;;40.90;21.10;;;;;;;10.16;100.00;100232.29;636985;1300;141101;-81
2022/11/07 18:16:43;;;;;;;31.80;18.60;;;;;;;10.13;100.00;100237.04;636525;1301;139405;-83
2022/11/07 18:31:49;;;;;;;33.10;18.80;;;;;;;10.17;100.00;100240.03;637012;1302;139317;-82
2022/11/07 18:46:52;;;;;;;36.30;19.60;;;;;;;10.20;100.00;100247.20;637011;1300;141491;-82
2022/11/07 19:01:56;;;;;;;32.80;18.80;;;;;;;10.21;100.00;100249.33;645398;1301;140813;-82
2022/11/07 19:16:59;;;;;;;33.60;17.10;;;;;;;10.21;100.00;100247.98;638345;1300;141097;-81
2022/11/07 19:32:04;;;;;;;33.70;18.10;;;;;;;10.26;100.00;100246.07;638278;1297;139243;-81
2022/11/07 20:00:48;;;;;;;41.90;20.30;;;;;;;10.31;100.00;100245.49;626988;1322;545559;-81
2022/11/07 20:15:55;;;;;;;31.20;18.20;;;;;;;10.50;100.00;100249.83;633875;1312;138821;-82
2022/11/07 20:30:59;;;;;;;32.90;20.30;;;;;;;10.53;100.00;100250.77;634382;1312;140263;-82
2022/11/07 20:46:06;;;;;;;36.40;19.70;;;;;;;10.42;100.00;100254.55;636168;1314;140462;-82
2022/11/07 21:01:16;;;;;;;33.30;19.10;;;;;;;10.29;100.00;100243.05;632711;1303;139844;-82
2022/11/07 21:16:21;;;;;;;33.50;19.00;;;;;;;10.16;100.00;100240.12;632212;1311;140418;-82
2022/11/07 21:31:28;;;;;;;33.50;18.80;;;;;;;10.05;100.00;100243.52;632370;1304;139545;-82
2022/11/07 21:46:35;;;;;;;33.80;19.30;;;;;;;9.86;100.00;100242.08;633407;1311;139179;-82
2022/11/07 22:01:39;;;;;;;34.90;19.20;;;;;;;10.00;100.00;100236.09;633888;1307;140619;-81
2022/11/07 22:16:43;;;;;;;30.00;17.80;;;;;;;9.98;100.00;100242.95;634397;1304;139527;-82
2022/11/07 22:31:47;;;;;;;32.20;18.40;;;;;;;9.81;100.00;100245.39;631937;1319;139502;-81
2022/11/07 22:46:51;;;;;;;39.40;21.50;;;;;;;9.62;100.00;100253.83;632253;1320;140305;-81
2022/11/07 23:01:54;;;;;;;45.10;25.00;;;;;;;9.61;100.00;100259.17;632338;1307;140615;-81
2022/11/07 23:16:57;;;;;;;64.00;35.10;;;;;;;9.62;100.00;100264.19;633892;1306;140972;-81
2022/11/07 23:32:00;;;;;;;43.80;23.80;;;;;;;9.87;100.00;100266.58;634483;1304;139270;-82
